Time;durP1;ratioP1;P1;durP2;ratioP2;P2;SDS_P1;SDS_P2;PMS_P1;PMS_P2;Temp;Humidity;BMP_temperature;BMP_pressure;BME280_temperature;BME280_humidity;BME280_pressure;Samples;Min_cycle;Max_cycle;Signal;HPM_P1;HPM_P2
2022/12/02 00:00:07;;;;;;;;;;;;;;;;;;4980875;28;7144;-69
2022/12/02 00:02:34;;;;;;;;;;;;;;;;;;4979988;28;7163;-69
2022/12/02 00:05:24;;;;;;;;;;;;;;;;;;4980587;28;7448;-69
2022/12/02 00:10:54;;;;;;;;;;;;;;;;;;4980087;28;6925;-69
2022/12/02 00:13:20;;;;;;;;;;;;;;;;;;4979961;28;7165;-70
2022/12/02 00:15:48;;;;;;;;;;;;;;;;;;4980138;28;7277;-70
2022/12/02 00:18:49;;;;;;;;;;;;;;;;;;4979930;28;6952;-70
2022/12/02 00:21:15;;;;;;;;;;;;;;;;;;4979969;28;6961;-70
2022/12/02 00:23:55;;;;;;;;;;;;;;;;;;4979894;28;7265;-69
2022/12/02 00:26:32;;;;;;;;;;;;;;;;;;4980005;28;6981;-69
2022/12/02 00:28:58;;;;;;;;;;;;;;;;;;5029540;28;7397;-69
2022/12/02 00:34:26;;;;;;;;;;;;;;;;;;5040482;28;6677;-70
2022/12/02 00:36:52;;;;;;;;;;;;;;;;;;5040960;28;7086;-69
2022/12/02 00:39:35;;;;;;;;;;;;;;;;;;5040584;28;7191;-69
2022/12/02 00:42:01;;;;;;;;;;;;;;;;;;5039185;28;7461;-69
2022/12/02 00:47:26;;;;;;;;;;;;;;;;;;5037671;28;6812;-69
2022/12/02 00:49:52;;;;;;;;;;;;;;;;;;5037461;28;6995;-69
2022/12/02 00:52:17;;;;;;;;;;;;;;;;;;5026256;28;7031;-69
2022/12/02 00:57:45;;;;;;;;;;;;;;;;;;5037148;28;6840;-69
2022/12/02 01:00:11;;;;;;;;;;;;;;;;;;5037140;28;7132;-69
2022/12/02 01:03:02;;;;;;;;;;;;;;;;;;5037289;28;7411;-69
2022/12/02 01:08:30;;;;;;;;;;;;;;;;;;5036924;28;6681;-70
2022/12/02 01:10:57;;;;;;;;;;;;;;;;;;5037019;28;7040;-70
2022/12/02 01:13:45;;;;;;;;;;;;;;;;;;5036926;28;7071;-69
2022/12/02 01:16:10;;;;;;;;;;;;;;;;;;5035751;28;8481;-70
2022/12/02 01:18:54;;;;;;;;;;;;;;;;;;5036976;28;7437;-69
2022/12/02 01:21:42;;;;;;;;;;;;;;;;;;5036871;28;7162;-70
2022/12/02 01:24:08;;;;;;;;;;;;;;;;;;5036997;28;7118;-69
2022/12/02 01:26:55;;;;;;;;;;;;;;;;;;5036934;28;7246;-69
2022/12/02 01:29:21;;;;;;;;;;;;;;;;;;5036567;28;6919;-78
2022/12/02 01:31:54;;;;;;;;;;;;;;;;;;5036773;28;6921;-77
2022/12/02 01:34:20;;;;;;;;;;;;;;;;;;5036535;28;7418;-78
2022/12/02 01:42:52;;;;;;;;;;;;;;;;;;5036325;28;6906;-76
2022/12/02 01:48:21;;;;;;;;;;;;;;;;;;5036275;28;7025;-78
2022/12/02 01:53:49;;;;;;;;;;;;;;;;;;5030522;28;6701;-76
2022/12/02 01:56:26;;;;;;;;;;;;;;;;;;5036114;28;7123;-77
2022/12/02 02:08:03;;;;;;;;;;;;;;;;;;5035919;28;6967;-78
2022/12/02 02:20:11;;;;;;;;;;;;;;;;;;5035469;28;6678;-77
2022/12/02 02:22:55;;;;;;;;;;;;;;;;;;5035211;28;7053;-77
2022/12/02 02:25:20;;;;;;;;;;;;;;;;;;5035653;28;7156;-76
2022/12/02 02:28:01;;;;;;;;;;;;;;;;;;5035586;28;7117;-77
2022/12/02 02:30:28;;;;;;;;;;;;;;;;;;5035901;28;7001;-77
2022/12/02 02:32:57;;;;;;;;;;;;;;;;;;5051347;28;8724;-77
2022/12/02 02:35:23;;;;;;;;;;;;;;;;;;5035380;28;7183;-77
2022/12/02 02:37:51;;;;;;;;;;;;;;;;;;5035527;28;7732;-78
2022/12/02 02:43:23;;;;;;;;;;;;;;;;;;5026106;28;6980;-78
2022/12/02 02:45:50;;;;;;;;;;;;;;;;;;5015464;28;7183;-77
2022/12/02 02:48:17;;;;;;;;;;;;;;;;;;5015548;28;7158;-77
2022/12/02 02:50:45;;;;;;;;;;;;;;;;;;5031645;28;6896;-77
2022/12/02 02:53:12;;;;;;;;;;;;;;;;;;5011504;28;7087;-75
2022/12/02 02:56:05;;;;;;;;;;;;;;;;;;5015845;28;7036;-76
2022/12/02 02:58:33;;;;;;;;;;;;;;;;;;5015379;28;7150;-77
2022/12/02 03:04:21;;;;;;;;;;;;;;;;;;5015129;28;6685;-77
2022/12/02 03:06:49;;;;;;;;;;;;;;;;;;5015059;28;7174;-77
2022/12/02 03:09:18;;;;;;;;;;;;;;;;;;5015202;28;7197;-77
2022/12/02 03:14:59;;;;;;;;;;;;;;;;;;5014839;28;7044;-77
2022/12/02 03:17:25;;;;;;;;;;;;;;;;;;5015115;28;7044;-77
2022/12/02 03:19:51;;;;;;;;;;;;;;;;;;5015669;28;7098;-75
2022/12/02 03:22:17;;;;;;;;;;;;;;;;;;5014968;28;7097;-76
2022/12/02 03:24:42;;;;;;;;;;;;;;;;;;5015535;28;7032;-76
2022/12/02 03:27:09;;;;;;;;;;;;;;;;;;5014813;28;7073;-76
2022/12/02 03:29:35;;;;;;;;;;;;;;;;;;5014854;28;6993;-76
2022/12/02 03:32:02;;;;;;;;;;;;;;;;;;5015045;28;6932;-78
2022/12/02 03:34:41;;;;;;;;;;;;;;;;;;5014895;28;7082;-78
2022/12/02 03:37:08;;;;;;;;;;;;;;;;;;5014635;28;7025;-76
2022/12/02 03:39:44;;;;;;;;;;;;;;;;;;5014887;28;7109;-78
2022/12/02 03:42:10;;;;;;;;;;;;;;;;;;5014846;28;7254;-77
2022/12/02 03:44:49;;;;;;;;;;;;;;;;;;5014733;28;7201;-76
2022/12/02 03:47:14;;;;;;;;;;;;;;;;;;5014514;28;6948;-77
2022/12/02 03:49:40;;;;;;;;;;;;;;;;;;5014758;28;7407;-76
2022/12/02 03:52:30;;;;;;;;;;;;;;;;;;5014800;28;7293;-77
2022/12/02 03:54:56;;;;;;;;;;;;;;;;;;4975688;28;7224;-77
2022/12/02 03:57:22;;;;;;;;;;;;;;;;;;4976824;28;7335;-77
2022/12/02 03:59:48;;;;;;;;;;;;;;;;;;4975483;28;7262;-77
2022/12/02 04:02:35;;;;;;;;;;;;;;;;;;4975790;28;7304;-77
2022/12/02 04:05:01;;;;;;;;;;;;;;;;;;4975414;28;7261;-77
2022/12/02 04:07:26;;;;;;;;;;;;;;;;;;4975602;28;7169;-78
2022/12/02 04:09:52;;;;;;;;;;;;;;;;;;4975312;28;7173;-77
2022/12/02 04:12:17;;;;;;;;;;;;;;;;;;4975592;28;7368;-78
2022/12/02 04:14:43;;;;;;;;;;;;;;;;;;4975115;28;7572;-76
2022/12/02 04:17:09;;;;;;;;;;;;;;;;;;4976227;28;7160;-78
2022/12/02 04:19:34;;;;;;;;;;;;;;;;;;4979117;28;6970;-77
2022/12/02 04:22:24;;;;;;;;;;;;;;;;;;4980274;28;7136;-77
2022/12/02 04:27:52;;;;;;;;;;;;;;;;;;4978813;28;6928;-78
2022/12/02 04:30:18;;;;;;;;;;;;;;;;;;4978818;28;7035;-76
2022/12/02 04:32:44;;;;;;;;;;;;;;;;;;4980191;28;7128;-78
2022/12/02 04:35:09;;;;;;;;;;;;;;;;;;4979379;28;7080;-77
2022/12/02 04:37:37;;;;;;;;;;;;;;;;;;4978696;28;6972;-77
2022/12/02 04:40:04;;;;;;;;;;;;;;;;;;4978722;28;7087;-77
2022/12/02 04:42:29;;;;;;;;;;;;;;;;;;4978581;28;7717;-76
2022/12/02 04:44:55;;;;;;;;;;;;;;;;;;4978492;28;7851;-78
2022/12/02 04:47:21;;;;;;;;;;;;;;;;;;4978717;28;7108;-77
2022/12/02 04:59:31;;;;;;;;;;;;;;;;;;5017269;28;6673;-76
2022/12/02 05:01:57;;;;;;;;;;;;;;;;;;5017221;28;7217;-78
2022/12/02 05:04:23;;;;;;;;;;;;;;;;;;5018347;28;7365;-78
2022/12/02 05:06:48;;;;;;;;;;;;;;;;;;5017564;28;7452;-76
2022/12/02 05:09:14;;;;;;;;;;;;;;;;;;5017238;28;7100;-78
2022/12/02 05:14:42;;;;;;;;;;;;;;;;;;5016866;28;6686;-77
2022/12/02 05:17:14;;;;;;;;;;;;;;;;;;5018429;28;7158;-78
2022/12/02 05:19:39;;;;;;;;;;;;;;;;;;5017091;28;7339;-82
2022/12/02 05:22:05;;;;;;;;;;;;;;;;;;5023089;28;7364;-77
2022/12/02 05:24:31;;;;;;;;;;;;;;;;;;5026443;28;7027;-78
2022/12/02 05:30:09;;;;;;;;;;;;;;;;;;5026771;28;6741;-77
2022/12/02 05:32:35;;;;;;;;;;;;;;;;;;5026967;28;7081;-76
2022/12/02 05:35:03;;;;;;;;;;;;;;;;;;5025245;28;7252;-69
2022/12/02 05:37:28;;;;;;;;;;;;;;;;;;5026773;28;7288;-69
2022/12/02 05:40:20;;;;;;;;;;;;;;;;;;5026682;28;7074;-69
2022/12/02 05:42:46;;;;;;;;;;;;;;;;;;5025465;28;7132;-68
2022/12/02 05:45:20;;;;;;;;;;;;;;;;;;5026032;28;7088;-69
2022/12/02 05:47:48;;;;;;;;;;;;;;;;;;5021800;28;7241;-68
2022/12/02 05:50:14;;;;;;;;;;;;;;;;;;5068044;23;7242;-77
2022/12/02 05:52:39;;;;;;;;;;;;;;;;;;5058748;22;7141;-69
2022/12/02 05:57:35;;;;;;;;;;;;;;;;;;5027965;28;6932;-69
2022/12/02 06:00:14;;;;;;;;;;;;;;;;;;5026968;28;7434;-69
2022/12/02 06:02:49;;;;;;;;;;;;;;;;;;5112964;22;7266;-77
2022/12/02 06:05:48;;;;;;;;;;;;;;;;;;5044793;28;7573;-77
2022/12/02 06:08:17;;;;;;;;;;;;;;;;;;5046662;28;7203;-69
2022/12/02 06:10:56;;;;;;;;;;;;;;;;;;5048640;28;6840;-69
2022/12/02 06:13:25;;;;;;;;;;;;;;;;;;5044006;28;6919;-68
2022/12/02 06:15:52;;;;;;;;;;;;;;;;;;5044324;28;8133;-69
2022/12/02 06:18:19;;;;;;;;;;;;;;;;;;5045914;28;6958;-69
2022/12/02 06:21:15;;;;;;;;;;;;;;;;;;5043643;28;7463;-68
2022/12/02 06:23:43;;;;;;;;;;;;;;;;;;5043160;28;7016;-69
2022/12/02 06:29:16;;;;;;;;;;;;;;;;;;5045953;28;6741;-68
2022/12/02 06:31:49;;;;;;;;;;;;;;;;;;5044988;28;6827;-68
2022/12/02 06:34:33;;;;;;;;;;;;;;;;;;5041444;28;7495;-68
2022/12/02 06:40:35;;;;;;;;;;;;;;;;;;5040726;28;6904;-67
2022/12/02 06:43:20;;;;;;;;;;;;;;;;;;5035229;28;7462;-68
2022/12/02 06:45:45;;;;;;;;;;;;;;;;;;5020556;28;7234;-68
2022/12/02 06:48:39;;;;;;;;;;;;;;;;;;5015464;28;7051;-68
2022/12/02 06:51:11;;;;;;;;;;;;;;;;;;5015442;28;6931;-67
2022/12/02 06:53:53;;;;;;;;;;;;;;;;;;5015045;28;7204;-68
2022/12/02 06:56:26;;;;;;;;;;;;;;;;;;5035171;28;7169;-69
2022/12/02 06:59:05;;;;;;;;;;;;;;;;;;5035253;28;7024;-68
2022/12/02 07:01:33;;;;;;;;;;;;;;;;;;5035165;28;7210;-69
2022/12/02 07:03:58;;;;;;;;;;;;;;;;;;5031152;28;7889;-68
2022/12/02 07:06:49;;;;;;;;;;;;;;;;;;5035344;28;7206;-68
2022/12/02 07:12:31;;;;;;;;;;;;;;;;;;5034652;28;6680;-68
2022/12/02 07:15:01;;;;;;;;;;;;;;;;;;5034102;28;7833;-68
2022/12/02 07:20:33;;;;;;;;;;;;;;;;;;5034518;28;6984;-68
2022/12/02 07:23:17;;;;;;;;;;;;;;;;;;5034484;28;7194;-68
2022/12/02 07:25:46;;;;;;;;;;;;;;;;;;5034744;28;7424;-68
2022/12/02 07:28:21;;;;;;;;;;;;;;;;;;5034905;28;7088;-68
2022/12/02 07:30:52;;;;;;;;;;;;;;;;;;5034870;28;7265;-68
2022/12/02 07:33:18;;;;;;;;;;;;;;;;;;5034721;28;7127;-68
2022/12/02 07:35:43;;;;;;;;;;;;;;;;;;5034618;28;7406;-68
2022/12/02 07:44:04;;;;;;;;;;;;;;;;;;5034701;28;6949;-68
2022/12/02 07:46:36;;;;;;;;;;;;;;;;;;5034313;28;7214;-68
2022/12/02 07:49:01;;;;;;;;;;;;;;;;;;5034485;28;7172;-68
2022/12/02 07:51:27;;;;;;;;;;;;;;;;;;5036216;28;7241;-68
2022/12/02 07:56:51;;;;;;;;;;;;;;;;;;5038485;28;7023;-68
2022/12/02 07:59:42;;;;;;;;;;;;;;;;;;5038262;28;7462;-68
2022/12/02 08:02:08;;;;;;;;;;;;;;;;;;5038470;28;7178;-68
2022/12/02 08:04:33;;;;;;;;;;;;;;;;;;5035356;28;7204;-67
2022/12/02 08:13:05;;;;;;;;;;;;;;;;;;5037888;28;6985;-68
2022/12/02 08:16:03;;;;;;;;;;;;;;;;;;5037723;28;7186;-68
2022/12/02 08:18:29;;;;;;;;;;;;;;;;;;5038229;28;7122;-68
2022/12/02 08:23:57;;;;;;;;;;;;;;;;;;5038152;28;6912;-68
2022/12/02 08:26:22;;;;;;;;;;;;;;;;;;5036624;28;8383;-68
2022/12/02 08:29:04;;;;;;;;;;;;;;;;;;5036660;28;7459;-68
2022/12/02 08:31:30;;;;;;;;;;;;;;;;;;5037776;28;7025;-67
2022/12/02 08:33:55;;;;;;;;;;;;;;;;;;5037880;28;7096;-67
2022/12/02 08:39:32;;;;;;;;;;;;;;;;;;5037220;28;7037;-67
2022/12/02 08:41:57;;;;;;;;;;;;;;;;;;5037925;28;7037;-67
2022/12/02 08:44:49;;;;;;;;;;;;;;;;;;5037366;28;7218;-67
2022/12/02 08:47:14;;;;;;;;;;;;;;;;;;5037525;28;6957;-67
2022/12/02 08:49:40;;;;;;;;;;;;;;;;;;5035808;28;8962;-67
2022/12/02 08:55:05;;;;;;;;;;;;;;;;;;5017529;28;7116;-67
2022/12/02 08:57:44;;;;;;;;;;;;;;;;;;5017125;28;7170;-67
2022/12/02 09:00:10;;;;;;;;;;;;;;;;;;5029336;28;7034;-67
2022/12/02 09:02:57;;;;;;;;;;;;;;;;;;5029898;28;7112;-67
2022/12/02 09:05:23;;;;;;;;;;;;;;;;;;5003064;28;7191;-68
2022/12/02 09:08:05;;;;;;;;;;;;;;;;;;4997690;28;6981;-67
2022/12/02 09:10:31;;;;;;;;;;;;;;;;;;4997684;28;7156;-68
2022/12/02 09:13:06;;;;;;;;;;;;;;;;;;4997746;28;7036;-67
2022/12/02 09:15:32;;;;;;;;;;;;;;;;;;4997259;28;7196;-68
2022/12/02 09:17:57;;;;;;;;;;;;;;;;;;4997244;28;7214;-67
2022/12/02 09:20:23;;;;;;;;;;;;;;;;;;4997206;28;7820;-67
2022/12/02 09:22:48;;;;;;;;;;;;;;;;;;4997639;28;7142;-68
2022/12/02 09:25:15;;;;;;;;;;;;;;;;;;5010898;28;8420;-68
2022/12/02 09:27:43;;;;;;;;;;;;;;;;;;4997517;28;7054;-74
2022/12/02 09:30:25;;;;;;;;;;;;;;;;;;4995687;28;8452;-75
2022/12/02 09:32:50;;;;;;;;;;;;;;;;;;5012616;28;7141;-74
2022/12/02 09:35:28;;;;;;;;;;;;;;;;;;4997281;28;7044;-76
2022/12/02 09:37:53;;;;;;;;;;;;;;;;;;4977705;28;7678;-76
2022/12/02 09:40:25;;;;;;;;;;;;;;;;;;4977519;28;6985;-75
2022/12/02 09:42:51;;;;;;;;;;;;;;;;;;4977515;28;6940;-75
2022/12/02 09:45:45;;;;;;;;;;;;;;;;;;4977555;28;7499;-75
2022/12/02 09:48:11;;;;;;;;;;;;;;;;;;4977302;28;6999;-75
2022/12/02 09:50:45;;;;;;;;;;;;;;;;;;4978125;28;7263;-74
2022/12/02 09:53:13;;;;;;;;;;;;;;;;;;4977140;28;6952;-75
2022/12/02 09:55:39;;;;;;;;;;;;;;;;;;4977155;28;7414;-74
2022/12/02 09:58:42;;;;;;;;;;;;;;;;;;4978708;28;7191;-74
2022/12/02 10:01:09;;;;;;;;;;;;;;;;;;4977730;28;7029;-67
2022/12/02 10:03:35;;;;;;;;;;;;;;;;;;4986577;28;7287;-67
2022/12/02 10:06:05;;;;;;;;;;;;;;;;;;5016565;28;7144;-67
2022/12/02 10:09:08;;;;;;;;;;;;;;;;;;5015980;28;7225;-67
2022/12/02 10:11:35;;;;;;;;;;;;;;;;;;5016173;28;6923;-67
2022/12/02 10:20:22;;;;;;;;;;;;;;;;;;5015860;28;6947;-67
2022/12/02 10:23:06;;;;;;;;;;;;;;;;;;5016002;28;7326;-67
2022/12/02 10:25:53;;;;;;;;;;;;;;;;;;5016519;28;7125;-67
2022/12/02 10:28:21;;;;;;;;;;;;;;;;;;5015834;28;7151;-67
2022/12/02 10:33:37;;;;;;;;;;;;;;;;;;5035924;28;6990;-67
2022/12/02 10:36:03;;;;;;;;;;;;;;;;;;5036486;28;7121;-67
2022/12/02 10:38:45;;;;;;;;;;;;;;;;;;5035462;28;6919;-67
2022/12/02 10:41:14;;;;;;;;;;;;;;;;;;5035459;28;7247;-67
2022/12/02 10:43:40;;;;;;;;;;;;;;;;;;5035414;28;7098;-67
2022/12/02 10:46:06;;;;;;;;;;;;;;;;;;5034837;28;7057;-67
2022/12/02 10:51:35;;;;;;;;;;;;;;;;;;5015337;28;6900;-67
2022/12/02 10:54:00;;;;;;;;;;;;;;;;;;5015490;28;7232;-67
2022/12/02 10:56:26;;;;;;;;;;;;;;;;;;5013847;28;8419;-67
2022/12/02 10:59:28;;;;;;;;;;;;;;;;;;5015275;28;7134;-67
2022/12/02 11:01:54;;;;;;;;;;;;;;;;;;5015345;28;7310;-66
2022/12/02 11:04:20;;;;;;;;;;;;;;;;;;5012861;28;7059;-67
2022/12/02 11:06:55;;;;;;;;;;;;;;;;;;5015248;28;7187;-66
2022/12/02 11:09:22;;;;;;;;;;;;;;;;;;5015812;28;7202;-67
2022/12/02 11:11:48;;;;;;;;;;;;;;;;;;5015394;28;7149;-66
2022/12/02 11:14:33;;;;;;;;;;;;;;;;;;5015155;28;6823;-67
2022/12/02 11:17:08;;;;;;;;;;;;;;;;;;5030255;28;8397;-67
2022/12/02 11:19:44;;;;;;;;;;;;;;;;;;5014774;28;7064;-67
2022/12/02 11:25:31;;;;;;;;;;;;;;;;;;5014930;28;6916;-67
2022/12/02 11:28:41;;;;;;;;;;;;;;;;;;5014735;28;7256;-67
2022/12/02 11:31:10;;;;;;;;;;;;;;;;;;5015172;28;7574;-67
2022/12/02 11:33:42;;;;;;;;;;;;;;;;;;5014993;28;7216;-67
2022/12/02 11:36:07;;;;;;;;;;;;;;;;;;5030895;28;6807;-67
2022/12/02 11:39:00;;;;;;;;;;;;;;;;;;5014922;28;6827;-67
2022/12/02 11:41:27;;;;;;;;;;;;;;;;;;5014982;28;7452;-66
2022/12/02 11:43:53;;;;;;;;;;;;;;;;;;5015662;28;7167;-67
2022/12/02 11:46:43;;;;;;;;;;;;;;;;;;5014860;28;7488;-66
2022/12/02 11:49:24;;;;;;;;;;;;;;;;;;5014847;28;7199;-67
2022/12/02 11:52:15;;;;;;;;;;;;;;;;;;5014804;28;7077;-67
2022/12/02 11:54:59;;;;;;;;;;;;;;;;;;5014847;28;7174;-67
2022/12/02 11:57:29;;;;;;;;;;;;;;;;;;5014755;28;7110;-67
2022/12/02 11:59:59;;;;;;;;;;;;;;;;;;5014685;28;7032;-67
2022/12/02 12:02:24;;;;;;;;;;;;;;;;;;5014740;28;7304;-67
2022/12/02 12:07:49;;;;;;;;;;;;;;;;;;5015487;28;6955;-67
2022/12/02 12:13:22;;;;;;;;;;;;;;;;;;5014725;28;6685;-67
2022/12/02 12:15:50;;;;;;;;;;;;;;;;;;5014580;28;7157;-67
2022/12/02 12:18:34;;;;;;;;;;;;;;;;;;5014586;28;7273;-67
2022/12/02 12:21:00;;;;;;;;;;;;;;;;;;5014494;28;7041;-67
2022/12/02 12:23:27;;;;;;;;;;;;;;;;;;5014578;28;7387;-67
2022/12/02 12:25:53;;;;;;;;;;;;;;;;;;5014568;28;7230;-66
2022/12/02 12:28:29;;;;;;;;;;;;;;;;;;5014443;28;7394;-67
2022/12/02 12:30:56;;;;;;;;;;;;;;;;;;5014062;28;7335;-67
2022/12/02 12:33:21;;;;;;;;;;;;;;;;;;5014566;28;7129;-66
2022/12/02 12:35:56;;;;;;;;;;;;;;;;;;5014386;28;7066;-67
2022/12/02 12:38:22;;;;;;;;;;;;;;;;;;5015226;28;7556;-68
2022/12/02 12:41:23;;;;;;;;;;;;;;;;;;5017888;28;7261;-67
2022/12/02 12:43:49;;;;;;;;;;;;;;;;;;5017967;28;7054;-67
2022/12/02 12:46:31;;;;;;;;;;;;;;;;;;5017607;28;7921;-67
2022/12/02 12:48:56;;;;;;;;;;;;;;;;;;5018386;28;7164;-67
2022/12/02 12:54:49;;;;;;;;;;;;;;;;;;5017698;28;7071;-67
2022/12/02 12:57:15;;;;;;;;;;;;;;;;;;5017782;28;7326;-67
2022/12/02 12:59:41;;;;;;;;;;;;;;;;;;5017565;28;7094;-66
2022/12/02 13:08:20;;;;;;;;;;;;;;;;;;5017581;28;6685;-67
2022/12/02 13:10:46;;;;;;;;;;;;;;;;;;5017320;28;6807;-67
2022/12/02 13:13:12;;;;;;;;;;;;;;;;;;5017048;28;7195;-67
2022/12/02 13:15:38;;;;;;;;;;;;;;;;;;5063429;22;6886;-67
2022/12/02 13:18:03;;;;;;;;;;;;;;;;;;5117733;22;7148;-75
2022/12/02 13:20:29;;;;;;;;;;;;;;;;;;5117184;22;7146;-73
2022/12/02 13:25:24;;;;;;;;;;;;;;;;;;5076116;22;6921;-76
2022/12/02 13:27:50;;;;;;;;;;;;;;;;;;5116390;22;8977;-70
2022/12/02 13:30:17;;;;;;;;;;;;;;;;;;5003401;28;7117;-73
2022/12/02 13:32:43;;;;;;;;;;;;;;;;;;5071171;22;7149;-75
2022/12/02 13:35:10;;;;;;;;;;;;;;;;;;5076221;22;8437;-69
2022/12/02 13:37:36;;;;;;;;;;;;;;;;;;5059149;22;8519;-70
2022/12/02 13:40:02;;;;;;;;;;;;;;;;;;5069562;22;9419;-75
2022/12/02 13:42:28;;;;;;;;;;;;;;;;;;5073759;22;7500;-67
2022/12/02 13:47:57;;;;;;;;;;;;;;;;;;5118984;22;7531;-74
2022/12/02 13:55:27;;;;;;;;;;;;;;;;;;5116340;22;7300;-68
2022/12/02 13:57:52;;;;;;;;;;;;;;;;;;5115519;22;7230;-73
2022/12/02 14:00:18;;;;;;;;;;;;;;;;;;5075816;22;6992;-66
2022/12/02 14:05:12;;;;;;;;;;;;;;;;;;5034297;28;6925;-75
2022/12/02 14:07:37;;;;;;;;;;;;;;;;;;5074153;22;8451;-67
2022/12/02 14:10:04;;;;;;;;;;;;;;;;;;5100442;22;7587;-67
2022/12/02 14:28:01;;;;;;;;;;;;;;;;;;5034204;28;7238;-74
2022/12/02 14:35:42;;;;;;;;;;;;;;;;;;5033405;28;7107;-67
2022/12/02 14:38:10;;;;;;;;;;;;;;;;;;5036171;28;6815;-67
2022/12/02 14:40:36;;;;;;;;;;;;;;;;;;5035648;28;7109;-67
2022/12/02 14:54:22;;;;;;;;;;;;;;;;;;5112296;27;6985;-65
2022/12/02 14:56:48;;;;;;;;;;;;;;;;;;5092365;28;7392;-65
2022/12/02 14:59:14;;;;;;;;;;;;;;;;;;5092453;28;6980;-65
2022/12/02 15:01:40;;;;;;;;;;;;;;;;;;5090368;28;6915;-65
2022/12/02 15:04:07;;;;;;;;;;;;;;;;;;5090592;28;6994;-65
2022/12/02 15:06:32;;;;;;;;;;;;;;;;;;5091222;28;7143;-64
2022/12/02 15:09:02;;;;;;;;;;;;;;;;;;5090955;28;7068;-65
2022/12/02 15:11:27;;;;;;;;;;;;;;;;;;5091520;28;6941;-64
2022/12/02 15:14:15;;;;;;;;;;;;;;;;;;5083336;28;6837;-65
2022/12/02 15:16:40;;;;;;;;;;;;;;;;;;5088232;28;6969;-64
2022/12/02 15:19:07;;;;;;;;;;;;;;;;;;5090375;28;7000;-64
2022/12/02 15:21:32;;;;;;;;;;;;;;;;;;5091006;28;6928;-65
2022/12/02 15:24:20;;;;;;;;;;;;;;;;;;5071058;28;7057;-64
2022/12/02 15:26:45;;;;;;;;;;;;;;;;;;5080388;28;6944;-64
2022/12/02 15:35:08;;;;;;;;;;;;;;;;;;5090512;28;6828;-64
2022/12/02 15:37:40;;;;;;;;;;;;;;;;;;5091105;28;7128;-65
2022/12/02 15:40:07;;;;;;;;;;;;;;;;;;5090634;28;6981;-65
2022/12/02 15:42:33;;;;;;;;;;;;;;;;;;5090949;28;7210;-65
2022/12/02 15:48:10;;;;;;;;;;;;;;;;;;5089851;28;6677;-64
2022/12/02 15:50:35;;;;;;;;;;;;;;;;;;5090090;28;7161;-65
2022/12/02 15:53:01;;;;;;;;;;;;;;;;;;5084387;28;6917;-65
2022/12/02 15:55:26;;;;;;;;;;;;;;;;;;5077104;28;7244;-64
2022/12/02 15:57:53;;;;;;;;;;;;;;;;;;5076744;28;7042;-65
2022/12/02 16:00:19;;;;;;;;;;;;;;;;;;5073276;28;6957;-64
2022/12/02 16:05:47;;;;;;;;;;;;;;;;;;5056905;28;6680;-65
2022/12/02 16:08:13;;;;;;;;;;;;;;;;;;5057003;28;7463;-64
2022/12/02 16:10:39;;;;;;;;;;;;;;;;;;5056922;28;7115;-71
2022/12/02 16:13:12;;;;;;;;;;;;;;;;;;5057053;28;7057;-70
2022/12/02 16:15:38;;;;;;;;;;;;;;;;;;5069804;28;7092;-65
2022/12/02 16:18:28;;;;;;;;;;;;;;;;;;5076944;28;7015;-65
2022/12/02 16:20:54;;;;;;;;;;;;;;;;;;5077100;28;6986;-64
2022/12/02 16:23:19;;;;;;;;;;;;;;;;;;5076602;28;7112;-65
2022/12/02 16:25:45;;;;;;;;;;;;;;;;;;5075286;28;8754;-64
2022/12/02 16:28:11;;;;;;;;;;;;;;;;;;5076465;28;6929;-64
2022/12/02 16:30:45;;;;;;;;;;;;;;;;;;5076477;28;6944;-65
2022/12/02 16:33:11;;;;;;;;;;;;;;;;;;5076628;28;6932;-64
2022/12/02 16:35:38;;;;;;;;;;;;;;;;;;5076672;28;7234;-65
2022/12/02 16:38:03;;;;;;;;;;;;;;;;;;5077373;28;7052;-65
2022/12/02 16:40:29;;;;;;;;;;;;;;;;;;5076505;28;7106;-65
2022/12/02 16:42:55;;;;;;;;;;;;;;;;;;5076307;28;7117;-65
2022/12/02 16:45:20;;;;;;;;;;;;;;;;;;5076025;28;7559;-65
2022/12/02 16:47:51;;;;;;;;;;;;;;;;;;5076208;28;6937;-65
2022/12/02 16:50:17;;;;;;;;;;;;;;;;;;5075976;28;8054;-65
2022/12/02 16:52:43;;;;;;;;;;;;;;;;;;5076656;28;7151;-64
2022/12/02 16:55:09;;;;;;;;;;;;;;;;;;5075853;28;7017;-64
2022/12/02 16:57:34;;;;;;;;;;;;;;;;;;5076166;28;7146;-65
2022/12/02 17:00:00;;;;;;;;;;;;;;;;;;5076163;28;7124;-65
2022/12/02 17:08:25;;;;;;;;;;;;;;;;;;5075817;28;6924;-65
2022/12/02 17:13:59;;;;;;;;;;;;;;;;;;5075640;28;6688;-64
2022/12/02 17:16:25;;;;;;;;;;;;;;;;;;5075396;28;7408;-65
2022/12/02 17:21:49;;;;;;;;;;;;;;;;;;5075881;28;7054;-65
2022/12/02 17:24:14;;;;;;;;;;;;;;;;;;5075492;28;7338;-65
2022/12/02 17:26:54;;;;;;;;;;;;;;;;;;5074455;28;8415;-64
2022/12/02 17:29:20;;;;;;;;;;;;;;;;;;5075354;28;7267;-76
2022/12/02 17:31:46;;;;;;;;;;;;;;;;;;5075542;28;7107;-65
2022/12/02 17:34:12;;;;;;;;;;;;;;;;;;5075284;28;7224;-65
2022/12/02 17:36:38;;;;;;;;;;;;;;;;;;5061598;28;7109;-65
2022/12/02 17:39:06;;;;;;;;;;;;;;;;;;5054969;28;7184;-64
2022/12/02 17:41:32;;;;;;;;;;;;;;;;;;5054959;28;7020;-65
2022/12/02 17:43:58;;;;;;;;;;;;;;;;;;5054845;28;7449;-65
2022/12/02 17:46:24;;;;;;;;;;;;;;;;;;5055229;28;7359;-65
2022/12/02 17:51:51;;;;;;;;;;;;;;;;;;5055378;28;6893;-65
2022/12/02 17:54:16;;;;;;;;;;;;;;;;;;5049426;28;7105;-65
2022/12/02 17:59:51;;;;;;;;;;;;;;;;;;5054509;28;6685;-65
2022/12/02 18:02:16;;;;;;;;;;;;;;;;;;5054794;28;6993;-65
2022/12/02 18:05:02;;;;;;;;;;;;;;;;;;5054805;28;7944;-65
2022/12/02 18:07:29;;;;;;;;;;;;;;;;;;5054838;28;6993;-65
2022/12/02 18:10:11;;;;;;;;;;;;;;;;;;5054654;28;7036;-65
2022/12/02 18:12:37;;;;;;;;;;;;;;;;;;5054849;28;7232;-64
2022/12/02 18:15:03;;;;;;;;;;;;;;;;;;5054747;28;6979;-65
2022/12/02 18:17:29;;;;;;;;;;;;;;;;;;5054538;28;7233;-64
2022/12/02 18:19:54;;;;;;;;;;;;;;;;;;5054556;28;7585;-64
2022/12/02 18:22:20;;;;;;;;;;;;;;;;;;5054358;28;7023;-65
2022/12/02 18:24:45;;;;;;;;;;;;;;;;;;5054326;28;7102;-64
2022/12/02 18:27:11;;;;;;;;;;;;;;;;;;5054540;28;7348;-65
2022/12/02 18:29:36;;;;;;;;;;;;;;;;;;5054798;28;6954;-65
2022/12/02 18:32:19;;;;;;;;;;;;;;;;;;5054527;28;7227;-64
2022/12/02 18:34:45;;;;;;;;;;;;;;;;;;5054439;28;7128;-64
2022/12/02 18:37:13;;;;;;;;;;;;;;;;;;5052943;28;8741;-65
2022/12/02 18:39:39;;;;;;;;;;;;;;;;;;5054011;28;6993;-64
2022/12/02 18:42:04;;;;;;;;;;;;;;;;;;5054202;28;6973;-64
2022/12/02 18:44:30;;;;;;;;;;;;;;;;;;5054274;28;8069;-65
2022/12/02 18:47:00;;;;;;;;;;;;;;;;;;5055511;28;7183;-65
2022/12/02 18:49:25;;;;;;;;;;;;;;;;;;5054103;28;6922;-65
2022/12/02 18:51:51;;;;;;;;;;;;;;;;;;5055134;28;6956;-70
2022/12/02 18:54:17;;;;;;;;;;;;;;;;;;5052688;28;7118;-70
2022/12/02 18:56:54;;;;;;;;;;;;;;;;;;5055081;28;7046;-70
2022/12/02 18:59:20;;;;;;;;;;;;;;;;;;5054081;28;7131;-70
2022/12/02 19:01:52;;;;;;;;;;;;;;;;;;5054171;28;7056;-70
2022/12/02 19:04:18;;;;;;;;;;;;;;;;;;5054110;28;6848;-70
2022/12/02 19:06:45;;;;;;;;;;;;;;;;;;5054235;28;6964;-70
2022/12/02 19:09:11;;;;;;;;;;;;;;;;;;5053952;28;7130;-70
2022/12/02 19:11:39;;;;;;;;;;;;;;;;;;5054237;28;7127;-70
2022/12/02 19:14:05;;;;;;;;;;;;;;;;;;5067011;28;7194;-70
2022/12/02 19:16:30;;;;;;;;;;;;;;;;;;5073848;28;6973;-70
2022/12/02 19:18:56;;;;;;;;;;;;;;;;;;5073930;28;7046;-70
2022/12/02 19:24:32;;;;;;;;;;;;;;;;;;5073779;28;6753;-70
2022/12/02 19:26:57;;;;;;;;;;;;;;;;;;5073574;28;6973;-70
2022/12/02 19:29:23;;;;;;;;;;;;;;;;;;5075215;28;7149;-70
2022/12/02 19:32:02;;;;;;;;;;;;;;;;;;5076448;28;7074;-70
2022/12/02 19:34:27;;;;;;;;;;;;;;;;;;5077772;28;7133;-70
2022/12/02 19:36:53;;;;;;;;;;;;;;;;;;5078583;28;7151;-70
2022/12/02 19:39:19;;;;;;;;;;;;;;;;;;5077471;28;7151;-70
2022/12/02 19:45:10;;;;;;;;;;;;;;;;;;5077220;28;6917;-70
2022/12/02 19:47:35;;;;;;;;;;;;;;;;;;5077457;28;7144;-70
2022/12/02 19:50:01;;;;;;;;;;;;;;;;;;5077290;28;6903;-70
2022/12/02 19:52:26;;;;;;;;;;;;;;;;;;5077111;28;7166;-70
2022/12/02 19:54:52;;;;;;;;;;;;;;;;;;5075448;28;6921;-70
2022/12/02 19:57:25;;;;;;;;;;;;;;;;;;5077316;28;7124;-65
2022/12/02 19:59:50;;;;;;;;;;;;;;;;;;5077122;28;7142;-65
2022/12/02 20:02:16;;;;;;;;;;;;;;;;;;5076787;28;7653;-65
2022/12/02 20:04:43;;;;;;;;;;;;;;;;;;5077223;28;7223;-64
2022/12/02 20:07:09;;;;;;;;;;;;;;;;;;5077211;28;7204;-64
2022/12/02 20:09:40;;;;;;;;;;;;;;;;;;5076860;28;7191;-65
2022/12/02 20:12:06;;;;;;;;;;;;;;;;;;5076781;28;6932;-65
2022/12/02 20:14:32;;;;;;;;;;;;;;;;;;5075690;28;8223;-73
2022/12/02 20:16:57;;;;;;;;;;;;;;;;;;5076656;28;7033;-65
2022/12/02 20:22:27;;;;;;;;;;;;;;;;;;5076540;28;6712;-64
2022/12/02 20:24:53;;;;;;;;;;;;;;;;;;5076781;28;7152;-65
2022/12/02 20:27:18;;;;;;;;;;;;;;;;;;5076670;28;7078;-70
2022/12/02 20:29:52;;;;;;;;;;;;;;;;;;5076214;28;7140;-70
2022/12/02 20:32:18;;;;;;;;;;;;;;;;;;5076687;28;7058;-70
2022/12/02 20:34:56;;;;;;;;;;;;;;;;;;5076520;28;7059;-70
2022/12/02 20:37:22;;;;;;;;;;;;;;;;;;5076424;28;6882;-70
2022/12/02 20:39:58;;;;;;;;;;;;;;;;;;5076250;28;7244;-70
2022/12/02 20:42:24;;;;;;;;;;;;;;;;;;5076370;28;7155;-70
2022/12/02 20:44:49;;;;;;;;;;;;;;;;;;5076418;28;6924;-70
2022/12/02 20:47:30;;;;;;;;;;;;;;;;;;5076075;28;8004;-70
2022/12/02 20:49:56;;;;;;;;;;;;;;;;;;5076578;28;7032;-72
2022/12/02 20:52:22;;;;;;;;;;;;;;;;;;5076295;28;7316;-70
2022/12/02 20:54:47;;;;;;;;;;;;;;;;;;5070069;28;6913;-70
2022/12/02 20:57:31;;;;;;;;;;;;;;;;;;5075913;28;7017;-70
2022/12/02 20:59:57;;;;;;;;;;;;;;;;;;5076015;28;7247;-70
2022/12/02 21:02:23;;;;;;;;;;;;;;;;;;5075959;28;6952;-70
2022/12/02 21:05:18;;;;;;;;;;;;;;;;;;5075963;28;7391;-70
2022/12/02 21:07:43;;;;;;;;;;;;;;;;;;5075902;28;7233;-70
2022/12/02 21:10:31;;;;;;;;;;;;;;;;;;5075867;28;7147;-70
2022/12/02 21:12:58;;;;;;;;;;;;;;;;;;5075670;28;7388;-70